createdAt,value
2023-04-12T00:03:39.424Z,8.45
2023-04-12T00:08:42.824Z,8.40
2023-04-12T00:13:44.321Z,8.34
2023-04-12T00:18:45.841Z,8.25
2023-04-12T00:23:47.617Z,8.12
2023-04-12T00:28:49.112Z,8.04
2023-04-12T00:33:50.626Z,8.01
2023-04-12T00:38:52.164Z,7.97
2023-04-12T00:43:53.906Z,7.91
2023-04-12T00:48:57.084Z,7.80
2023-04-12T00:54:00.049Z,7.71
2023-04-12T00:59:02.189Z,7.65
2023-04-12T01:04:04.752Z,7.56
2023-04-12T01:09:34.433Z,7.50
2023-04-12T01:14:44.441Z,7.40
2023-04-12T01:20:13.847Z,7.33
2023-04-12T01:25:32.614Z,7.25
2023-04-12T01:30:34.870Z,7.19
2023-04-12T01:35:37.966Z,7.11
2023-04-12T01:40:42.511Z,7.06
2023-04-12T01:45:44.236Z,7.03
2023-04-12T01:51:10.706Z,7.08
2023-04-12T01:56:13.096Z,7.18
2023-04-12T02:01:16.140Z,7.26
2023-04-12T02:06:22.931Z,7.33
2023-04-12T02:11:24.648Z,7.34
2023-04-12T02:16:29.489Z,7.35
2023-04-12T02:21:42.867Z,7.36
2023-04-12T02:26:44.352Z,7.41
2023-04-12T02:31:46.483Z,7.45
2023-04-12T02:36:49.303Z,7.44
2023-04-12T02:41:51.057Z,7.39
2023-04-12T02:46:52.591Z,7.34
2023-04-12T02:51:54.065Z,7.34
2023-04-12T02:56:55.831Z,7.35
2023-04-12T03:01:57.466Z,7.37
2023-04-12T03:06:59.273Z,7.40
2023-04-12T03:12:02.130Z,7.41
2023-04-12T03:17:03.616Z,7.43
2023-04-12T03:22:06.194Z,7.40
2023-04-12T03:27:08.360Z,7.39
2023-04-12T03:32:09.882Z,7.37
2023-04-12T03:37:11.512Z,7.34
2023-04-12T03:42:25.487Z,7.33
2023-04-12T03:47:33.780Z,7.35
2023-04-12T03:52:35.845Z,7.34
2023-04-12T03:57:37.436Z,7.36
2023-04-12T04:02:39.190Z,7.39
2023-04-12T04:07:40.796Z,7.43
2023-04-12T04:12:42.327Z,7.48
2023-04-12T04:17:44.821Z,7.51
2023-04-12T04:22:49.984Z,7.56
2023-04-12T04:27:52.091Z,7.61
2023-04-12T04:32:53.726Z,7.65
2023-04-12T04:37:55.728Z,7.69
2023-04-12T04:42:57.887Z,7.75
2023-04-12T04:47:59.472Z,7.79
2023-04-12T04:53:01.080Z,7.85
2023-04-12T04:58:02.573Z,7.91
2023-04-12T05:03:04.340Z,7.95
2023-04-12T05:08:06.216Z,8.01
2023-04-12T05:13:07.701Z,8.10
2023-04-12T05:18:09.219Z,8.21
2023-04-12T05:23:10.952Z,8.36
2023-04-12T05:28:14.387Z,8.49
2023-04-12T05:33:16.025Z,8.59
2023-04-12T05:38:17.607Z,8.68
2023-04-12T05:43:19.167Z,8.87
2023-04-12T05:48:21.647Z,8.95
2023-04-12T05:53:23.152Z,8.93
2023-04-12T05:58:24.788Z,9.02
2023-04-12T06:03:26.784Z,9.11
2023-04-12T06:08:29.496Z,9.14
2023-04-12T06:13:31.221Z,9.17
2023-04-12T06:18:33.216Z,9.17
2023-04-12T06:23:34.741Z,9.18
2023-04-12T06:28:36.443Z,9.36
2023-04-12T06:33:38.017Z,9.49
2023-04-12T06:38:39.618Z,9.62
2023-04-12T06:43:41.156Z,9.73
2023-04-12T06:48:42.648Z,9.86
2023-04-12T06:53:44.323Z,9.99
2023-04-12T06:58:46.058Z,9.91
2023-04-12T07:03:47.678Z,9.77
2023-04-12T07:08:49.695Z,9.77
2023-04-12T07:13:51.626Z,9.80
2023-04-12T07:18:53.353Z,9.95
2023-04-12T07:23:55.873Z,10.02
2023-04-12T07:28:57.800Z,10.18
2023-04-12T07:33:59.693Z,10.20
2023-04-12T07:39:01.353Z,10.11
2023-04-12T07:44:02.841Z,10.20
2023-04-12T07:49:04.493Z,10.14
2023-04-12T07:54:06.364Z,10.08
2023-04-12T07:59:08.039Z,9.99
2023-04-12T08:04:09.598Z,9.91
2023-04-12T08:09:11.254Z,9.95
2023-04-12T08:14:13.331Z,10.40
2023-04-12T08:19:14.850Z,10.85
2023-04-12T08:24:16.327Z,11.21
2023-04-12T08:29:18.375Z,11.41
2023-04-12T08:34:22.356Z,11.46
2023-04-12T08:39:23.948Z,11.89
2023-04-12T08:44:36.610Z,12.08
2023-04-12T08:49:38.200Z,11.90
2023-04-12T08:54:39.686Z,11.98
2023-04-12T08:59:43.696Z,12.05
2023-04-12T09:04:50.437Z,12.11
2023-04-12T09:09:52.130Z,11.88
2023-04-12T09:15:08.590Z,11.81
2023-04-12T09:20:16.149Z,11.77
2023-04-12T09:25:17.678Z,11.76
2023-04-12T09:30:20.833Z,11.67
2023-04-12T09:35:35.717Z,11.70
2023-04-12T09:40:38.240Z,11.90
2023-04-12T09:45:39.975Z,12.07
2023-04-12T09:50:41.622Z,12.18
2023-04-12T09:55:44.134Z,12.45
2023-04-12T10:00:47.102Z,12.89
2023-04-12T10:05:49.043Z,13.08
2023-04-12T10:10:52.208Z,13.19
2023-04-12T10:15:54.070Z,13.33
2023-04-12T10:20:56.043Z,13.44
2023-04-12T10:25:58.862Z,13.52
2023-04-12T10:31:00.716Z,13.42
2023-04-12T10:36:06.954Z,13.88
2023-04-12T10:41:11.878Z,14.26
2023-04-12T10:46:46.181Z,14.30
2023-04-12T10:52:09.525Z,14.54
2023-04-12T10:57:47.865Z,14.62
2023-04-12T11:03:12.108Z,14.46
2023-04-12T11:08:14.425Z,14.53
2023-04-12T11:13:17.011Z,14.78
2023-04-12T11:18:18.927Z,14.95
2023-04-12T11:23:22.109Z,14.99
2023-04-12T11:28:29.771Z,14.85
2023-04-12T11:33:36.867Z,14.67
2023-04-12T11:38:39.415Z,14.63
2023-04-12T11:43:41.029Z,14.60
2023-04-12T11:48:45.928Z,14.30
2023-04-12T11:53:52.663Z,14.06
2023-04-12T11:58:54.268Z,14.06
2023-04-12T12:03:56.512Z,14.19
2023-04-12T12:08:59.244Z,14.19
2023-04-12T12:14:01.191Z,14.13
2023-04-12T12:19:05.678Z,14.05
2023-04-12T12:24:07.366Z,14.21
2023-04-12T12:29:17.811Z,14.18
2023-04-12T12:34:19.760Z,14.11
2023-04-12T12:39:21.362Z,14.00
2023-04-12T12:44:24.066Z,13.86
2023-04-12T12:49:25.815Z,13.93
2023-04-12T12:54:40.591Z,14.02
2023-04-12T12:59:42.982Z,14.13
2023-04-12T13:04:44.634Z,14.39
2023-04-12T13:09:46.529Z,14.51
2023-04-12T13:14:48.596Z,14.64
2023-04-12T13:19:50.190Z,14.90
2023-04-12T13:24:51.693Z,15.30
2023-04-12T13:29:53.220Z,15.57
2023-04-12T13:34:54.745Z,15.65
2023-04-12T13:39:56.638Z,15.71
2023-04-12T13:44:58.236Z,15.74
2023-04-12T13:50:02.952Z,15.78
2023-04-12T13:55:08.261Z,15.94
2023-04-12T14:00:11.385Z,16.06
2023-04-12T14:05:12.901Z,16.06
2023-04-12T14:10:14.462Z,15.95
2023-04-12T14:15:16.441Z,15.70
2023-04-12T14:20:19.494Z,15.37
2023-04-12T14:25:21.457Z,15.44
2023-04-12T14:30:23.001Z,15.69
2023-04-12T14:35:24.884Z,15.96
2023-04-12T14:40:26.642Z,16.09
2023-04-12T14:45:28.249Z,16.16
2023-04-12T14:50:29.886Z,16.03
2023-04-12T14:55:32.769Z,15.96
2023-04-12T15:00:34.925Z,15.92
2023-04-12T15:05:36.489Z,15.93
2023-04-12T15:10:38.072Z,15.79
2023-04-12T15:15:39.690Z,15.40
2023-04-12T15:20:41.208Z,15.01
2023-04-12T15:25:42.846Z,14.77
2023-04-12T15:30:44.982Z,14.59
2023-04-12T15:35:48.335Z,14.44
2023-04-12T15:40:59.116Z,14.26
2023-04-12T15:46:01.615Z,14.01
2023-04-12T15:51:03.666Z,13.81
2023-04-12T15:56:05.846Z,13.66
2023-04-12T16:01:07.547Z,13.65
2023-04-12T16:06:09.289Z,13.78
2023-04-12T16:11:12.328Z,13.96
2023-04-12T16:16:17.326Z,14.03
2023-04-12T16:21:21.403Z,13.92
2023-04-12T16:26:23.526Z,13.85
2023-04-12T16:31:26.671Z,13.74
2023-04-12T16:36:31.604Z,13.57
2023-04-12T16:41:33.445Z,13.35
2023-04-12T16:46:35.022Z,13.11
2023-04-12T16:51:37.664Z,12.98
2023-04-12T16:56:39.475Z,12.86
2023-04-12T17:01:41.103Z,12.76
2023-04-12T17:06:44.249Z,12.67
2023-04-12T17:11:46.264Z,12.51
2023-04-12T17:16:47.850Z,12.36
2023-04-12T17:21:49.825Z,12.20
2023-04-12T17:26:51.602Z,12.04
2023-04-12T17:31:55.013Z,11.90
2023-04-12T17:36:56.962Z,11.73
2023-04-12T17:41:58.473Z,11.57
2023-04-12T17:47:00.000Z,11.42
2023-04-12T17:52:01.545Z,11.33
2023-04-12T17:57:04.139Z,11.28
2023-04-12T18:02:06.101Z,11.21
2023-04-12T18:07:10.327Z,11.16
2023-04-12T18:12:13.103Z,11.12
2023-04-12T18:17:14.627Z,11.07
2023-04-12T18:22:16.296Z,11.03
2023-04-12T18:27:17.800Z,10.95
2023-04-12T18:32:19.821Z,10.93
2023-04-12T18:37:21.639Z,10.96
2023-04-12T18:42:23.266Z,10.98
2023-04-12T18:47:26.631Z,10.96
2023-04-12T18:52:28.143Z,10.94
2023-04-12T18:57:30.292Z,10.85
2023-04-12T19:02:32.819Z,10.78
2023-04-12T19:07:34.484Z,10.71
2023-04-12T19:12:36.041Z,10.64
2023-04-12T19:17:39.404Z,10.57
2023-04-12T19:22:40.942Z,10.46
2023-04-12T19:27:42.441Z,10.38
2023-04-12T19:32:44.049Z,10.33
2023-04-12T19:37:47.057Z,10.23
2023-04-12T19:42:48.562Z,10.11
2023-04-12T19:47:50.925Z,9.99
2023-04-12T19:52:52.743Z,9.78
2023-04-12T19:57:55.772Z,9.64
2023-04-12T20:02:57.310Z,9.56
2023-04-12T20:07:59.088Z,9.43
2023-04-12T20:13:00.789Z,9.30
2023-04-12T20:18:02.417Z,9.18
2023-04-12T20:23:04.637Z,9.09
2023-04-12T20:28:09.026Z,8.94
2023-04-12T20:33:10.673Z,8.74
2023-04-12T20:38:13.222Z,8.67
2023-04-12T20:43:15.622Z,8.63
2023-04-12T20:48:18.353Z,8.61
2023-04-12T20:53:19.818Z,8.57
2023-04-12T20:58:21.865Z,8.51
2023-04-12T21:03:23.590Z,8.43
2023-04-12T21:08:25.207Z,8.34
2023-04-12T21:13:26.700Z,8.21
2023-04-12T21:18:28.312Z,8.14
2023-04-12T21:23:30.243Z,7.97
2023-04-12T21:28:31.884Z,7.80
2023-04-12T21:33:34.732Z,7.74
2023-04-12T21:38:36.581Z,7.65
2023-04-12T21:43:41.561Z,7.50
2023-04-12T21:48:43.517Z,7.35
2023-04-12T21:53:45.150Z,7.28
2023-04-12T21:58:46.637Z,7.21
2023-04-12T22:03:48.356Z,7.08
2023-04-12T22:08:49.981Z,6.97
2023-04-12T22:13:51.496Z,6.82
2023-04-12T22:18:53.036Z,6.70
2023-04-12T22:23:55.245Z,6.58
2023-04-12T22:28:56.747Z,6.52
2023-04-12T22:33:58.338Z,6.46
2023-04-12T22:38:59.984Z,6.33
2023-04-12T22:44:01.726Z,6.21
2023-04-12T22:49:03.310Z,6.14
2023-04-12T22:54:06.362Z,6.09
2023-04-12T22:59:14.915Z,5.98
2023-04-12T23:04:16.929Z,5.88
2023-04-12T23:09:19.783Z,5.81
2023-04-12T23:14:21.269Z,5.74
2023-04-12T23:19:23.324Z,5.67
2023-04-12T23:24:25.058Z,5.57
2023-04-12T23:29:26.788Z,5.54
2023-04-12T23:34:30.758Z,5.52
2023-04-12T23:39:32.139Z,5.48
2023-04-12T23:44:33.703Z,5.45
2023-04-12T23:49:35.453Z,5.38
2023-04-12T23:54:36.988Z,5.26
2023-04-12T23:59:39.045Z,5.23
